sensor_id;sensor_type;location;lat;lon;timestamp;P1;durP1;ratioP1;P2;durP2;ratioP2
62179;SDS011;48172;53.374;10.722;2022-09-29T00:00:35;2.33;;;2.08;;
62179;SDS011;48172;53.374;10.722;2022-09-29T00:03:01;2.45;;;2.25;;
62179;SDS011;48172;53.374;10.722;2022-09-29T00:05:28;2.08;;;1.88;;
62179;SDS011;48172;53.374;10.722;2022-09-29T00:07:55;2.20;;;2.00;;
62179;SDS011;48172;53.374;10.722;2022-09-29T00:10:22;2.20;;;2.00;;
62179;SDS011;48172;53.374;10.722;2022-09-29T00:12:49;2.20;;;2.00;;
62179;SDS011;48172;53.374;10.722;2022-09-29T00:15:15;2.20;;;2.00;;
62179;SDS011;48172;53.374;10.722;2022-09-29T00:17:42;2.30;;;2.10;;
62179;SDS011;48172;53.374;10.722;2022-09-29T00:20:28;2.70;;;2.50;;
62179;SDS011;48172;53.374;10.722;2022-09-29T00:22:55;2.22;;;2.00;;
62179;SDS011;48172;53.374;10.722;2022-09-29T00:25:21;2.28;;;2.10;;
62179;SDS011;48172;53.374;10.722;2022-09-29T00:27:48;2.50;;;2.30;;
62179;SDS011;48172;53.374;10.722;2022-09-29T00:30:14;2.28;;;2.08;;
62179;SDS011;48172;53.374;10.722;2022-09-29T00:32:40;2.22;;;2.00;;
62179;SDS011;48172;53.374;10.722;2022-09-29T00:35:07;2.53;;;2.20;;
62179;SDS011;48172;53.374;10.722;2022-09-29T00:37:35;2.30;;;2.10;;
62179;SDS011;48172;53.374;10.722;2022-09-29T00:40:02;2.30;;;2.10;;
62179;SDS011;48172;53.374;10.722;2022-09-29T00:42:30;2.42;;;2.20;;
62179;SDS011;48172;53.374;10.722;2022-09-29T00:47:46;2.30;;;2.10;;
62179;SDS011;48172;53.374;10.722;2022-09-29T00:50:17;2.65;;;2.20;;
62179;SDS011;48172;53.374;10.722;2022-09-29T00:52:57;2.45;;;2.10;;
62179;SDS011;48172;53.374;10.722;2022-09-29T00:55:29;1.98;;;1.88;;
62179;SDS011;48172;53.374;10.722;2022-09-29T00:58:06;2.15;;;1.95;;
62179;SDS011;48172;53.374;10.722;2022-09-29T01:00:53;2.40;;;2.20;;
62179;SDS011;48172;53.374;10.722;2022-09-29T01:03:20;1.85;;;1.75;;
62179;SDS011;48172;53.374;10.722;2022-09-29T01:05:50;2.28;;;2.08;;
62179;SDS011;48172;53.374;10.722;2022-09-29T01:08:37;2.50;;;2.30;;
62179;SDS011;48172;53.374;10.722;2022-09-29T01:11:10;2.10;;;1.88;;
62179;SDS011;48172;53.374;10.722;2022-09-29T01:13:38;2.47;;;2.08;;
62179;SDS011;48172;53.374;10.722;2022-09-29T01:16:06;2.00;;;1.80;;
62179;SDS011;48172;53.374;10.722;2022-09-29T01:18:33;2.03;;;1.92;;
62179;SDS011;48172;53.374;10.722;2022-09-29T01:29:05;2.20;;;2.00;;
62179;SDS011;48172;53.374;10.722;2022-09-29T01:39:30;2.13;;;1.92;;
62179;SDS011;48172;53.374;10.722;2022-09-29T01:42:10;1.87;;;1.67;;
62179;SDS011;48172;53.374;10.722;2022-09-29T01:47:35;2.72;;;2.30;;
62179;SDS011;48172;53.374;10.722;2022-09-29T01:50:26;2.30;;;2.10;;
62179;SDS011;48172;53.374;10.722;2022-09-29T01:52:59;2.10;;;1.90;;
62179;SDS011;48172;53.374;10.722;2022-09-29T01:55:30;2.40;;;2.10;;
62179;SDS011;48172;53.374;10.722;2022-09-29T01:58:04;1.83;;;1.73;;
62179;SDS011;48172;53.374;10.722;2022-09-29T02:00:36;1.80;;;1.70;;
62179;SDS011;48172;53.374;10.722;2022-09-29T02:03:08;2.20;;;2.00;;
62179;SDS011;48172;53.374;10.722;2022-09-29T02:08:15;1.83;;;1.73;;
62179;SDS011;48172;53.374;10.722;2022-09-29T02:10:54;2.17;;;2.00;;
62179;SDS011;48172;53.374;10.722;2022-09-29T02:13:28;2.22;;;2.03;;
62179;SDS011;48172;53.374;10.722;2022-09-29T02:15:58;1.90;;;1.80;;
62179;SDS011;48172;53.374;10.722;2022-09-29T02:18:27;2.28;;;2.08;;
62179;SDS011;48172;53.374;10.722;2022-09-29T02:21:00;2.10;;;1.90;;
62179;SDS011;48172;53.374;10.722;2022-09-29T02:23:26;2.20;;;2.00;;
62179;SDS011;48172;53.374;10.722;2022-09-29T02:25:53;1.70;;;1.60;;
62179;SDS011;48172;53.374;10.722;2022-09-29T02:28:22;1.98;;;1.77;;
62179;SDS011;48172;53.374;10.722;2022-09-29T02:30:49;1.80;;;1.70;;
62179;SDS011;48172;53.374;10.722;2022-09-29T02:33:23;2.10;;;1.80;;
62179;SDS011;48172;53.374;10.722;2022-09-29T02:36:00;1.65;;;1.55;;
62179;SDS011;48172;53.374;10.722;2022-09-29T02:38:46;2.13;;;1.80;;
62179;SDS011;48172;53.374;10.722;2022-09-29T02:44:24;1.92;;;1.67;;
62179;SDS011;48172;53.374;10.722;2022-09-29T02:55:04;2.00;;;1.80;;
62179;SDS011;48172;53.374;10.722;2022-09-29T02:57:44;1.85;;;1.75;;
62179;SDS011;48172;53.374;10.722;2022-09-29T03:00:13;2.08;;;1.77;;
62179;SDS011;48172;53.374;10.722;2022-09-29T03:02:42;1.92;;;1.73;;
62179;SDS011;48172;53.374;10.722;2022-09-29T03:05:11;2.08;;;1.88;;
62179;SDS011;48172;53.374;10.722;2022-09-29T03:07:38;1.98;;;1.63;;
62179;SDS011;48172;53.374;10.722;2022-09-29T03:10:06;1.98;;;1.80;;
62179;SDS011;48172;53.374;10.722;2022-09-29T03:12:34;1.73;;;1.63;;
62179;SDS011;48172;53.374;10.722;2022-09-29T03:15:02;1.65;;;1.55;;
62179;SDS011;48172;53.374;10.722;2022-09-29T03:17:30;1.83;;;1.70;;
62179;SDS011;48172;53.374;10.722;2022-09-29T03:19:56;1.63;;;1.52;;
62179;SDS011;48172;53.374;10.722;2022-09-29T03:22:23;2.00;;;1.80;;
62179;SDS011;48172;53.374;10.722;2022-09-29T03:24:50;1.58;;;1.48;;
62179;SDS011;48172;53.374;10.722;2022-09-29T03:27:17;2.08;;;1.98;;
62179;SDS011;48172;53.374;10.722;2022-09-29T03:29:43;1.80;;;1.70;;
62179;SDS011;48172;53.374;10.722;2022-09-29T03:32:10;1.80;;;1.65;;
62179;SDS011;48172;53.374;10.722;2022-09-29T03:34:36;2.30;;;2.10;;
62179;SDS011;48172;53.374;10.722;2022-09-29T03:37:03;1.70;;;1.60;;
62179;SDS011;48172;53.374;10.722;2022-09-29T03:39:30;1.92;;;1.73;;
62179;SDS011;48172;53.374;10.722;2022-09-29T03:41:56;1.90;;;1.67;;
62179;SDS011;48172;53.374;10.722;2022-09-29T03:44:22;1.70;;;1.60;;
62179;SDS011;48172;53.374;10.722;2022-09-29T03:46:49;1.60;;;1.50;;
62179;SDS011;48172;53.374;10.722;2022-09-29T03:49:15;2.40;;;1.73;;
62179;SDS011;48172;53.374;10.722;2022-09-29T03:51:43;1.70;;;1.60;;
62179;SDS011;48172;53.374;10.722;2022-09-29T03:54:09;1.77;;;1.67;;
62179;SDS011;48172;53.374;10.722;2022-09-29T03:56:37;1.58;;;1.48;;
62179;SDS011;48172;53.374;10.722;2022-09-29T03:59:04;1.60;;;1.50;;
62179;SDS011;48172;53.374;10.722;2022-09-29T04:01:34;1.92;;;1.83;;
62179;SDS011;48172;53.374;10.722;2022-09-29T04:04:00;1.90;;;1.70;;
62179;SDS011;48172;53.374;10.722;2022-09-29T04:06:27;1.67;;;1.48;;
62179;SDS011;48172;53.374;10.722;2022-09-29T04:08:53;1.80;;;1.70;;
62179;SDS011;48172;53.374;10.722;2022-09-29T04:11:20;1.48;;;1.38;;
62179;SDS011;48172;53.374;10.722;2022-09-29T04:13:46;1.52;;;1.42;;
62179;SDS011;48172;53.374;10.722;2022-09-29T04:16:13;1.65;;;1.55;;
62179;SDS011;48172;53.374;10.722;2022-09-29T04:18:39;1.58;;;1.48;;
62179;SDS011;48172;53.374;10.722;2022-09-29T04:21:06;1.45;;;1.35;;
62179;SDS011;48172;53.374;10.722;2022-09-29T04:23:33;1.65;;;1.55;;
62179;SDS011;48172;53.374;10.722;2022-09-29T04:26:00;1.63;;;1.52;;
62179;SDS011;48172;53.374;10.722;2022-09-29T04:28:27;1.67;;;1.58;;
62179;SDS011;48172;53.374;10.722;2022-09-29T04:30:56;1.77;;;1.67;;
62179;SDS011;48172;53.374;10.722;2022-09-29T04:33:23;1.40;;;1.30;;
62179;SDS011;48172;53.374;10.722;2022-09-29T04:35:49;1.70;;;1.60;;
62179;SDS011;48172;53.374;10.722;2022-09-29T04:38:16;1.60;;;1.50;;
62179;SDS011;48172;53.374;10.722;2022-09-29T04:40:43;1.42;;;1.33;;
62179;SDS011;48172;53.374;10.722;2022-09-29T04:43:10;1.52;;;1.42;;
62179;SDS011;48172;53.374;10.722;2022-09-29T04:45:36;1.80;;;1.70;;
62179;SDS011;48172;53.374;10.722;2022-09-29T04:48:03;1.58;;;1.48;;
62179;SDS011;48172;53.374;10.722;2022-09-29T04:50:29;1.58;;;1.45;;
62179;SDS011;48172;53.374;10.722;2022-09-29T04:52:56;1.40;;;1.30;;
62179;SDS011;48172;53.374;10.722;2022-09-29T04:55:22;1.40;;;1.27;;
62179;SDS011;48172;53.374;10.722;2022-09-29T04:57:49;1.60;;;1.40;;
62179;SDS011;48172;53.374;10.722;2022-09-29T05:00:15;1.55;;;1.45;;
62179;SDS011;48172;53.374;10.722;2022-09-29T05:02:42;1.60;;;1.40;;
62179;SDS011;48172;53.374;10.722;2022-09-29T05:05:14;1.33;;;1.23;;
62179;SDS011;48172;53.374;10.722;2022-09-29T05:07:41;1.55;;;1.45;;
62179;SDS011;48172;53.374;10.722;2022-09-29T05:10:08;1.60;;;1.50;;
62179;SDS011;48172;53.374;10.722;2022-09-29T05:12:34;1.50;;;1.40;;
62179;SDS011;48172;53.374;10.722;2022-09-29T05:15:01;2.08;;;1.48;;
62179;SDS011;48172;53.374;10.722;2022-09-29T05:17:29;1.45;;;1.33;;
62179;SDS011;48172;53.374;10.722;2022-09-29T05:19:55;1.67;;;1.55;;
62179;SDS011;48172;53.374;10.722;2022-09-29T05:22:22;1.50;;;1.40;;
62179;SDS011;48172;53.374;10.722;2022-09-29T05:24:50;1.52;;;1.40;;
62179;SDS011;48172;53.374;10.722;2022-09-29T05:27:17;1.63;;;1.52;;
62179;SDS011;48172;53.374;10.722;2022-09-29T05:29:43;1.50;;;1.40;;
62179;SDS011;48172;53.374;10.722;2022-09-29T05:32:10;1.70;;;1.60;;
62179;SDS011;48172;53.374;10.722;2022-09-29T05:34:37;1.50;;;1.40;;
62179;SDS011;48172;53.374;10.722;2022-09-29T05:37:03;1.40;;;1.30;;
62179;SDS011;48172;53.374;10.722;2022-09-29T05:39:31;2.20;;;1.80;;
62179;SDS011;48172;53.374;10.722;2022-09-29T05:42:00;1.70;;;1.60;;
62179;SDS011;48172;53.374;10.722;2022-09-29T05:44:29;1.42;;;1.33;;
62179;SDS011;48172;53.374;10.722;2022-09-29T05:46:59;1.50;;;1.40;;
62179;SDS011;48172;53.374;10.722;2022-09-29T05:49:26;1.67;;;1.58;;
62179;SDS011;48172;53.374;10.722;2022-09-29T05:51:52;1.75;;;1.50;;
62179;SDS011;48172;53.374;10.722;2022-09-29T05:54:19;1.40;;;1.30;;
62179;SDS011;48172;53.374;10.722;2022-09-29T05:56:46;1.73;;;1.50;;
62179;SDS011;48172;53.374;10.722;2022-09-29T05:59:12;1.92;;;1.60;;
62179;SDS011;48172;53.374;10.722;2022-09-29T06:01:39;1.73;;;1.63;;
62179;SDS011;48172;53.374;10.722;2022-09-29T06:04:05;1.70;;;1.60;;
62179;SDS011;48172;53.374;10.722;2022-09-29T06:06:32;2.20;;;1.67;;
62179;SDS011;48172;53.374;10.722;2022-09-29T06:09:01;1.45;;;1.30;;
62179;SDS011;48172;53.374;10.722;2022-09-29T06:11:28;2.40;;;1.80;;
62179;SDS011;48172;53.374;10.722;2022-09-29T06:13:58;1.50;;;1.40;;
62179;SDS011;48172;53.374;10.722;2022-09-29T06:16:27;1.50;;;1.40;;
62179;SDS011;48172;53.374;10.722;2022-09-29T06:18:55;1.55;;;1.45;;
62179;SDS011;48172;53.374;10.722;2022-09-29T06:21:22;1.50;;;1.38;;
62179;SDS011;48172;53.374;10.722;2022-09-29T06:23:52;1.63;;;1.52;;
62179;SDS011;48172;53.374;10.722;2022-09-29T06:26:19;1.88;;;1.60;;
62179;SDS011;48172;53.374;10.722;2022-09-29T06:28:49;1.52;;;1.42;;
62179;SDS011;48172;53.374;10.722;2022-09-29T06:31:17;1.67;;;1.58;;
62179;SDS011;48172;53.374;10.722;2022-09-29T06:33:45;1.60;;;1.50;;
62179;SDS011;48172;53.374;10.722;2022-09-29T06:36:16;2.53;;;1.50;;
62179;SDS011;48172;53.374;10.722;2022-09-29T06:39:05;1.40;;;1.30;;
62179;SDS011;48172;53.374;10.722;2022-09-29T06:41:33;2.38;;;1.50;;
62179;SDS011;48172;53.374;10.722;2022-09-29T06:44:00;2.08;;;1.50;;
62179;SDS011;48172;53.374;10.722;2022-09-29T06:46:27;1.50;;;1.40;;
62179;SDS011;48172;53.374;10.722;2022-09-29T06:48:54;1.40;;;1.30;;
62179;SDS011;48172;53.374;10.722;2022-09-29T06:51:21;1.42;;;1.33;;
62179;SDS011;48172;53.374;10.722;2022-09-29T06:54:03;1.50;;;1.40;;
62179;SDS011;48172;53.374;10.722;2022-09-29T06:56:37;2.90;;;1.70;;
62179;SDS011;48172;53.374;10.722;2022-09-29T06:59:03;1.40;;;1.30;;
62179;SDS011;48172;53.374;10.722;2022-09-29T07:01:30;1.50;;;1.40;;
62179;SDS011;48172;53.374;10.722;2022-09-29T07:03:57;1.95;;;1.20;;
62179;SDS011;48172;53.374;10.722;2022-09-29T07:06:25;1.40;;;1.30;;
62179;SDS011;48172;53.374;10.722;2022-09-29T07:08:55;1.63;;;1.50;;
62179;SDS011;48172;53.374;10.722;2022-09-29T07:11:24;1.88;;;1.48;;
62179;SDS011;48172;53.374;10.722;2022-09-29T07:13:51;2.22;;;1.40;;
62179;SDS011;48172;53.374;10.722;2022-09-29T07:16:20;1.60;;;1.30;;
62179;SDS011;48172;53.374;10.722;2022-09-29T07:18:49;1.23;;;1.10;;
62179;SDS011;48172;53.374;10.722;2022-09-29T07:21:16;1.23;;;1.13;;
62179;SDS011;48172;53.374;10.722;2022-09-29T07:23:44;1.20;;;1.10;;
62179;SDS011;48172;53.374;10.722;2022-09-29T07:26:12;1.60;;;1.50;;
62179;SDS011;48172;53.374;10.722;2022-09-29T07:28:39;1.42;;;1.30;;
62179;SDS011;48172;53.374;10.722;2022-09-29T07:31:09;1.40;;;1.30;;
62179;SDS011;48172;53.374;10.722;2022-09-29T07:33:44;1.25;;;1.15;;
62179;SDS011;48172;53.374;10.722;2022-09-29T07:36:12;1.75;;;1.30;;
62179;SDS011;48172;53.374;10.722;2022-09-29T07:38:39;1.40;;;1.30;;
62179;SDS011;48172;53.374;10.722;2022-09-29T07:41:06;1.60;;;1.33;;
62179;SDS011;48172;53.374;10.722;2022-09-29T07:43:35;1.83;;;1.40;;
62179;SDS011;48172;53.374;10.722;2022-09-29T07:46:02;1.58;;;1.48;;
62179;SDS011;48172;53.374;10.722;2022-09-29T07:48:30;1.40;;;1.30;;
62179;SDS011;48172;53.374;10.722;2022-09-29T07:53:38;1.52;;;1.17;;
62179;SDS011;48172;53.374;10.722;2022-09-29T07:56:08;1.20;;;1.10;;
62179;SDS011;48172;53.374;10.722;2022-09-29T07:58:36;1.20;;;1.10;;
62179;SDS011;48172;53.374;10.722;2022-09-29T08:01:04;1.73;;;1.63;;
62179;SDS011;48172;53.374;10.722;2022-09-29T08:03:36;1.35;;;1.25;;
62179;SDS011;48172;53.374;10.722;2022-09-29T08:06:04;1.73;;;1.60;;
62179;SDS011;48172;53.374;10.722;2022-09-29T08:08:33;2.00;;;1.40;;
62179;SDS011;48172;53.374;10.722;2022-09-29T08:11:04;1.33;;;1.20;;
62179;SDS011;48172;53.374;10.722;2022-09-29T08:13:32;1.40;;;1.30;;
62179;SDS011;48172;53.374;10.722;2022-09-29T08:16:02;1.60;;;1.45;;
62179;SDS011;48172;53.374;10.722;2022-09-29T08:18:29;2.33;;;1.50;;
62179;SDS011;48172;53.374;10.722;2022-09-29T08:20:57;1.63;;;1.52;;
62179;SDS011;48172;53.374;10.722;2022-09-29T08:23:28;1.45;;;1.35;;
62179;SDS011;48172;53.374;10.722;2022-09-29T08:26:00;1.90;;;1.30;;
62179;SDS011;48172;53.374;10.722;2022-09-29T08:28:29;1.50;;;1.40;;
62179;SDS011;48172;53.374;10.722;2022-09-29T08:31:04;1.48;;;1.30;;
62179;SDS011;48172;53.374;10.722;2022-09-29T08:33:32;1.50;;;1.40;;
62179;SDS011;48172;53.374;10.722;2022-09-29T08:36:00;1.60;;;1.50;;
62179;SDS011;48172;53.374;10.722;2022-09-29T08:38:28;1.83;;;1.63;;
62179;SDS011;48172;53.374;10.722;2022-09-29T08:40:56;1.58;;;1.48;;
62179;SDS011;48172;53.374;10.722;2022-09-29T08:43:30;1.52;;;1.42;;
62179;SDS011;48172;53.374;10.722;2022-09-29T08:46:07;1.50;;;1.40;;
62179;SDS011;48172;53.374;10.722;2022-09-29T08:49:02;1.63;;;1.40;;
62179;SDS011;48172;53.374;10.722;2022-09-29T08:51:59;1.60;;;1.40;;
62179;SDS011;48172;53.374;10.722;2022-09-29T08:54:42;1.60;;;1.50;;
62179;SDS011;48172;53.374;10.722;2022-09-29T08:57:14;1.55;;;1.45;;
62179;SDS011;48172;53.374;10.722;2022-09-29T08:59:45;1.60;;;1.50;;
62179;SDS011;48172;53.374;10.722;2022-09-29T09:13:21;1.48;;;1.35;;
62179;SDS011;48172;53.374;10.722;2022-09-29T09:21:05;1.38;;;1.27;;
62179;SDS011;48172;53.374;10.722;2022-09-29T09:26:06;1.40;;;1.30;;
62179;SDS011;48172;53.374;10.722;2022-09-29T09:28:42;1.77;;;1.58;;
62179;SDS011;48172;53.374;10.722;2022-09-29T09:42:22;1.98;;;1.50;;
62179;SDS011;48172;53.374;10.722;2022-09-29T09:44:53;2.13;;;1.45;;
62179;SDS011;48172;53.374;10.722;2022-09-29T09:47:28;1.17;;;1.10;;
62179;SDS011;48172;53.374;10.722;2022-09-29T09:50:00;2.47;;;1.60;;
62179;SDS011;48172;53.374;10.722;2022-09-29T09:52:43;1.45;;;1.35;;
62179;SDS011;48172;53.374;10.722;2022-09-29T09:55:16;1.70;;;1.17;;
62179;SDS011;48172;53.374;10.722;2022-09-29T10:00:55;2.08;;;1.55;;
62179;SDS011;48172;53.374;10.722;2022-09-29T10:03:26;1.55;;;1.27;;
62179;SDS011;48172;53.374;10.722;2022-09-29T10:05:53;1.83;;;1.30;;
62179;SDS011;48172;53.374;10.722;2022-09-29T10:10:47;1.58;;;1.25;;
62179;SDS011;48172;53.374;10.722;2022-09-29T10:13:28;1.73;;;1.35;;
62179;SDS011;48172;53.374;10.722;2022-09-29T10:16:00;1.40;;;1.30;;
62179;SDS011;48172;53.374;10.722;2022-09-29T10:18:35;2.00;;;1.30;;
62179;SDS011;48172;53.374;10.722;2022-09-29T10:24:19;1.58;;;1.25;;
62179;SDS011;48172;53.374;10.722;2022-09-29T10:26:53;1.15;;;1.05;;
62179;SDS011;48172;53.374;10.722;2022-09-29T10:34:51;1.30;;;1.20;;
62179;SDS011;48172;53.374;10.722;2022-09-29T10:37:28;1.40;;;1.23;;
62179;SDS011;48172;53.374;10.722;2022-09-29T10:40:03;1.30;;;1.20;;
62179;SDS011;48172;53.374;10.722;2022-09-29T10:42:43;1.20;;;1.10;;
62179;SDS011;48172;53.374;10.722;2022-09-29T10:45:23;1.30;;;1.20;;
62179;SDS011;48172;53.374;10.722;2022-09-29T10:50:31;1.17;;;1.08;;
62179;SDS011;48172;53.374;10.722;2022-09-29T10:53:14;1.52;;;1.10;;
62179;SDS011;48172;53.374;10.722;2022-09-29T10:55:47;1.40;;;1.27;;
62179;SDS011;48172;53.374;10.722;2022-09-29T10:58:23;1.33;;;1.23;;
62179;SDS011;48172;53.374;10.722;2022-09-29T11:01:14;1.52;;;1.25;;
62179;SDS011;48172;53.374;10.722;2022-09-29T11:03:58;1.38;;;1.27;;
62179;SDS011;48172;53.374;10.722;2022-09-29T11:06:32;1.10;;;1.08;;
62179;SDS011;48172;53.374;10.722;2022-09-29T11:09:01;1.60;;;1.05;;
62179;SDS011;48172;53.374;10.722;2022-09-29T11:11:31;1.25;;;1.15;;
62179;SDS011;48172;53.374;10.722;2022-09-29T11:14:00;1.05;;;1.00;;
62179;SDS011;48172;53.374;10.722;2022-09-29T11:16:34;1.27;;;1.17;;
62179;SDS011;48172;53.374;10.722;2022-09-29T11:19:10;1.35;;;1.20;;
62179;SDS011;48172;53.374;10.722;2022-09-29T11:27:29;1.27;;;1.17;;
62179;SDS011;48172;53.374;10.722;2022-09-29T11:30:00;2.17;;;1.20;;
62179;SDS011;48172;53.374;10.722;2022-09-29T11:32:37;1.30;;;1.20;;
62179;SDS011;48172;53.374;10.722;2022-09-29T11:46:04;1.85;;;1.42;;
62179;SDS011;48172;53.374;10.722;2022-09-29T11:51:33;3.50;;;1.20;;
62179;SDS011;48172;53.374;10.722;2022-09-29T11:56:48;1.35;;;1.17;;
62179;SDS011;48172;53.374;10.722;2022-09-29T12:21:06;1.15;;;1.05;;
62179;SDS011;48172;53.374;10.722;2022-09-29T12:23:42;1.85;;;1.30;;
62179;SDS011;48172;53.374;10.722;2022-09-29T12:26:16;1.10;;;0.98;;
62179;SDS011;48172;53.374;10.722;2022-09-29T12:28:58;1.20;;;1.10;;
62179;SDS011;48172;53.374;10.722;2022-09-29T12:31:33;1.10;;;1.00;;
62179;SDS011;48172;53.374;10.722;2022-09-29T12:34:04;1.33;;;1.23;;
62179;SDS011;48172;53.374;10.722;2022-09-29T12:36:50;1.52;;;1.15;;
62179;SDS011;48172;53.374;10.722;2022-09-29T12:42:18;1.10;;;1.00;;
62179;SDS011;48172;53.374;10.722;2022-09-29T12:45:22;1.27;;;1.17;;
62179;SDS011;48172;53.374;10.722;2022-09-29T12:48:14;1.70;;;1.13;;
62179;SDS011;48172;53.374;10.722;2022-09-29T12:50:50;1.13;;;0.93;;
62179;SDS011;48172;53.374;10.722;2022-09-29T12:56:07;1.20;;;1.10;;
62179;SDS011;48172;53.374;10.722;2022-09-29T13:01:26;1.17;;;1.08;;
62179;SDS011;48172;53.374;10.722;2022-09-29T13:12:34;1.13;;;1.02;;
62179;SDS011;48172;53.374;10.722;2022-09-29T13:15:07;1.10;;;1.00;;
62179;SDS011;48172;53.374;10.722;2022-09-29T13:17:53;1.20;;;1.10;;
62179;SDS011;48172;53.374;10.722;2022-09-29T13:29:23;1.00;;;0.90;;
62179;SDS011;48172;53.374;10.722;2022-09-29T13:31:52;1.30;;;1.20;;
62179;SDS011;48172;53.374;10.722;2022-09-29T13:34:33;1.23;;;1.13;;
62179;SDS011;48172;53.374;10.722;2022-09-29T13:37:13;1.35;;;1.25;;
62179;SDS011;48172;53.374;10.722;2022-09-29T13:39:42;1.20;;;1.10;;
62179;SDS011;48172;53.374;10.722;2022-09-29T13:42:37;1.13;;;1.02;;
62179;SDS011;48172;53.374;10.722;2022-09-29T13:45:15;1.67;;;1.23;;
62179;SDS011;48172;53.374;10.722;2022-09-29T13:47:44;0.90;;;0.90;;
62179;SDS011;48172;53.374;10.722;2022-09-29T13:58:29;1.00;;;1.00;;
62179;SDS011;48172;53.374;10.722;2022-09-29T14:01:02;1.42;;;1.08;;
62179;SDS011;48172;53.374;10.722;2022-09-29T14:03:35;1.00;;;0.90;;
62179;SDS011;48172;53.374;10.722;2022-09-29T14:06:15;1.00;;;0.90;;
62179;SDS011;48172;53.374;10.722;2022-09-29T14:09:03;1.17;;;1.08;;
62179;SDS011;48172;53.374;10.722;2022-09-29T14:14:49;1.10;;;1.00;;
62179;SDS011;48172;53.374;10.722;2022-09-29T14:17:22;1.40;;;1.20;;
62179;SDS011;48172;53.374;10.722;2022-09-29T14:23:47;0.98;;;0.88;;
62179;SDS011;48172;53.374;10.722;2022-09-29T14:27:45;1.23;;;1.05;;
62179;SDS011;48172;53.374;10.722;2022-09-29T14:33:11;1.10;;;1.00;;
62179;SDS011;48172;53.374;10.722;2022-09-29T14:43:57;1.40;;;1.10;;
62179;SDS011;48172;53.374;10.722;2022-09-29T14:52:27;1.00;;;0.90;;
62179;SDS011;48172;53.374;10.722;2022-09-29T15:03:17;1.02;;;0.95;;
62179;SDS011;48172;53.374;10.722;2022-09-29T15:09:02;1.10;;;0.98;;
62179;SDS011;48172;53.374;10.722;2022-09-29T15:11:42;1.17;;;1.08;;
62179;SDS011;48172;53.374;10.722;2022-09-29T15:25:22;1.38;;;1.27;;
62179;SDS011;48172;53.374;10.722;2022-09-29T15:27:57;0.88;;;0.88;;
62179;SDS011;48172;53.374;10.722;2022-09-29T15:30:28;1.30;;;1.20;;
62179;SDS011;48172;53.374;10.722;2022-09-29T15:35:49;1.10;;;1.00;;
62179;SDS011;48172;53.374;10.722;2022-09-29T15:40:57;1.30;;;1.20;;
62179;SDS011;48172;53.374;10.722;2022-09-29T15:43:27;1.38;;;1.27;;
62179;SDS011;48172;53.374;10.722;2022-09-29T15:46:12;1.48;;;1.15;;
62179;SDS011;48172;53.374;10.722;2022-09-29T15:48:43;1.75;;;0.90;;
62179;SDS011;48172;53.374;10.722;2022-09-29T15:51:36;1.10;;;1.00;;
62179;SDS011;48172;53.374;10.722;2022-09-29T15:54:04;1.10;;;1.00;;
62179;SDS011;48172;53.374;10.722;2022-09-29T15:56:34;1.30;;;1.20;;
62179;SDS011;48172;53.374;10.722;2022-09-29T15:59:20;1.33;;;1.20;;
62179;SDS011;48172;53.374;10.722;2022-09-29T16:02:04;1.40;;;1.30;;
62179;SDS011;48172;53.374;10.722;2022-09-29T16:04:33;2.15;;;1.10;;
62179;SDS011;48172;53.374;10.722;2022-09-29T16:07:02;1.38;;;1.20;;
62179;SDS011;48172;53.374;10.722;2022-09-29T16:09:29;1.15;;;1.05;;
62179;SDS011;48172;53.374;10.722;2022-09-29T16:11:55;1.23;;;1.13;;
62179;SDS011;48172;53.374;10.722;2022-09-29T16:14:23;1.40;;;1.30;;
62179;SDS011;48172;53.374;10.722;2022-09-29T16:16:53;1.23;;;1.13;;
62179;SDS011;48172;53.374;10.722;2022-09-29T16:19:27;1.20;;;1.10;;
62179;SDS011;48172;53.374;10.722;2022-09-29T16:21:56;1.13;;;1.02;;
62179;SDS011;48172;53.374;10.722;2022-09-29T16:24:34;1.50;;;1.40;;
62179;SDS011;48172;53.374;10.722;2022-09-29T16:30:20;1.20;;;1.10;;
62179;SDS011;48172;53.374;10.722;2022-09-29T16:32:52;1.55;;;1.38;;
62179;SDS011;48172;53.374;10.722;2022-09-29T16:35:38;1.33;;;1.20;;
62179;SDS011;48172;53.374;10.722;2022-09-29T16:38:29;1.20;;;1.10;;
62179;SDS011;48172;53.374;10.722;2022-09-29T16:41:14;1.25;;;1.15;;
62179;SDS011;48172;53.374;10.722;2022-09-29T16:43:47;1.40;;;1.30;;
62179;SDS011;48172;53.374;10.722;2022-09-29T16:46:19;1.30;;;1.10;;
62179;SDS011;48172;53.374;10.722;2022-09-29T16:48:47;1.45;;;1.20;;
62179;SDS011;48172;53.374;10.722;2022-09-29T16:51:19;1.48;;;1.27;;
62179;SDS011;48172;53.374;10.722;2022-09-29T16:54:04;1.30;;;1.20;;
62179;SDS011;48172;53.374;10.722;2022-09-29T16:56:31;1.85;;;1.38;;
62179;SDS011;48172;53.374;10.722;2022-09-29T16:59:08;1.75;;;1.10;;
62179;SDS011;48172;53.374;10.722;2022-09-29T17:01:37;1.98;;;1.50;;
62179;SDS011;48172;53.374;10.722;2022-09-29T17:04:08;1.30;;;1.20;;
62179;SDS011;48172;53.374;10.722;2022-09-29T17:06:36;1.48;;;1.35;;
62179;SDS011;48172;53.374;10.722;2022-09-29T17:09:04;1.10;;;1.05;;
62179;SDS011;48172;53.374;10.722;2022-09-29T17:11:30;1.48;;;1.30;;
62179;SDS011;48172;53.374;10.722;2022-09-29T17:13:57;1.40;;;1.20;;
62179;SDS011;48172;53.374;10.722;2022-09-29T17:16:24;1.33;;;1.23;;
62179;SDS011;48172;53.374;10.722;2022-09-29T17:18:51;1.52;;;1.42;;
62179;SDS011;48172;53.374;10.722;2022-09-29T17:21:19;1.40;;;1.30;;
62179;SDS011;48172;53.374;10.722;2022-09-29T17:23:45;1.55;;;1.33;;
62179;SDS011;48172;53.374;10.722;2022-09-29T17:26:34;1.55;;;1.45;;
62179;SDS011;48172;53.374;10.722;2022-09-29T17:29:22;1.50;;;1.30;;
62179;SDS011;48172;53.374;10.722;2022-09-29T17:31:49;1.52;;;1.35;;
62179;SDS011;48172;53.374;10.722;2022-09-29T17:34:16;1.98;;;1.58;;
62179;SDS011;48172;53.374;10.722;2022-09-29T17:36:45;1.60;;;1.40;;
62179;SDS011;48172;53.374;10.722;2022-09-29T17:39:12;3.08;;;1.27;;
62179;SDS011;48172;53.374;10.722;2022-09-29T17:41:38;1.33;;;1.23;;
62179;SDS011;48172;53.374;10.722;2022-09-29T17:44:11;1.73;;;1.40;;
62179;SDS011;48172;53.374;10.722;2022-09-29T17:46:37;1.45;;;1.35;;
62179;SDS011;48172;53.374;10.722;2022-09-29T17:49:04;1.20;;;1.10;;
62179;SDS011;48172;53.374;10.722;2022-09-29T17:51:36;1.48;;;1.38;;
62179;SDS011;48172;53.374;10.722;2022-09-29T17:54:03;1.40;;;1.30;;
62179;SDS011;48172;53.374;10.722;2022-09-29T17:56:30;1.33;;;1.23;;
62179;SDS011;48172;53.374;10.722;2022-09-29T17:59:03;1.47;;;1.37;;
62179;SDS011;48172;53.374;10.722;2022-09-29T18:01:32;1.42;;;1.33;;
62179;SDS011;48172;53.374;10.722;2022-09-29T18:04:00;1.30;;;1.20;;
62179;SDS011;48172;53.374;10.722;2022-09-29T18:06:29;1.45;;;1.35;;
62179;SDS011;48172;53.374;10.722;2022-09-29T18:11:37;1.30;;;1.20;;
62179;SDS011;48172;53.374;10.722;2022-09-29T18:14:04;1.40;;;1.30;;
62179;SDS011;48172;53.374;10.722;2022-09-29T18:16:30;1.65;;;1.30;;
62179;SDS011;48172;53.374;10.722;2022-09-29T18:18:57;1.48;;;1.38;;
62179;SDS011;48172;53.374;10.722;2022-09-29T18:21:24;1.50;;;1.40;;
62179;SDS011;48172;53.374;10.722;2022-09-29T18:23:51;1.75;;;1.42;;
62179;SDS011;48172;53.374;10.722;2022-09-29T18:26:17;2.13;;;1.42;;
62179;SDS011;48172;53.374;10.722;2022-09-29T18:28:44;1.30;;;1.20;;
62179;SDS011;48172;53.374;10.722;2022-09-29T18:33:50;1.67;;;1.58;;
62179;SDS011;48172;53.374;10.722;2022-09-29T18:36:17;1.25;;;1.15;;
62179;SDS011;48172;53.374;10.722;2022-09-29T18:38:44;1.50;;;1.40;;
62179;SDS011;48172;53.374;10.722;2022-09-29T18:41:17;1.90;;;1.38;;